DAUU/OGX METAR and TAF weather

Enter ICAO airport designator
Station Type Date Time Source
DAUU METAR 2020/08/11 18:00 UTC NOAA

DAUU 111800Z 06010KT CAVOK 38/04 Q1011


Station Type Date Time Source
DAUU Decoded METAR 2020/08/11 18:00 UTC NOAA

Ouargla, Algeria (DAUU) 31-55N 005-24E 141M
Aug 11, 2020 - 02:00 PM EDT / 2020.08.11 1800 UTC
Wind: from the ENE (060 degrees) at 12 MPH (10 KT):0
Visibility: greater than 7 mile(s):0
Temperature: 100 F (38 C)
Dew Point: 39 F (4 C)
Relative Humidity: 12%
Pressure (altimeter): 29.85 in. Hg (1011 hPa)
ob: DAUU 111800Z 06010KT CAVOK 38/04 Q1011
cycle: 18

Station Type Date Time Source
DAUU TAF 2017/11/09 18:03 UTC NOAA

TAF DAUU 091700Z 0918/1009 34012KT 9999 FEW040 SCT100 PROB40
TEMPO 0918/0924 34015G25KT 5000 -TSRA FEW036CB

Example: see airport list